Time;durP1;ratioP1;P1;durP2;ratioP2;P2;SDS_P1;SDS_P2;PMS_P1;PMS_P2;Temp;Humidity;BMP_temperature;BMP_pressure;BME280_temperature;BME280_humidity;BME280_pressure;Samples;Min_cycle;Max_cycle;Signal;HPM_P1;HPM_P2
2023/01/08 00:02:17;;;;;;;84.63;43.88;;;;;;;;;;6222709;23;20000;-88
2023/01/08 00:04:44;;;;;;;77.30;39.60;;;;;;;;;;6223791;23;20038;-90
2023/01/08 00:07:11;;;;;;;73.45;39.58;;;;;;;;;;6220935;23;20016;-89
2023/01/08 00:09:38;;;;;;;75.55;40.25;;;;;;;;;;6219193;23;20005;-89
2023/01/08 00:12:06;;;;;;;73.63;38.17;;;;;;;;;;6219425;23;20012;-89
2023/01/08 00:14:32;;;;;;;84.90;42.97;;;;;;;;;;6220986;23;20027;-89
2023/01/08 00:17:03;;;;;;;74.32;40.47;;;;;;;;;;6221397;23;20004;-96
2023/01/08 00:19:36;;;;;;;79.82;40.53;;;;;;;;;;6212665;23;20062;-95
2023/01/08 00:22:03;;;;;;;79.28;41.63;;;;;;;;;;6245739;23;20120;-88
2023/01/08 00:24:30;;;;;;;95.40;47.13;;;;;;;;;;6222437;23;20138;-87
2023/01/08 00:26:56;;;;;;;64.70;37.50;;;;;;;;;;6248117;23;20008;-87
2023/01/08 00:29:23;;;;;;;89.30;43.83;;;;;;;;;;6220269;23;20075;-88
2023/01/08 00:32:00;;;;;;;70.43;40.08;;;;;;;;;;6218841;23;20414;-90
2023/01/08 00:34:26;;;;;;;102.70;46.90;;;;;;;;;;6227290;22;20011;-89
2023/01/08 00:36:52;;;;;;;91.90;43.80;;;;;;;;;;6223787;23;20008;-88
2023/01/08 00:39:19;;;;;;;89.03;42.42;;;;;;;;;;6219342;23;20004;-89
2023/01/08 00:41:49;;;;;;;92.45;44.33;;;;;;;;;;6220795;23;20398;-94
2023/01/08 00:44:16;;;;;;;92.50;43.55;;;;;;;;;;6211246;23;20080;-87
2023/01/08 00:46:43;;;;;;;74.38;39.33;;;;;;;;;;6218067;23;20008;-88
2023/01/08 00:49:12;;;;;;;97.05;47.15;;;;;;;;;;6218699;23;20444;-87
2023/01/08 00:51:39;;;;;;;96.47;44.35;;;;;;;;;;6219569;23;20061;-88
2023/01/08 00:54:06;;;;;;;88.85;43.90;;;;;;;;;;6219722;23;20007;-88
2023/01/08 00:56:33;;;;;;;94.30;45.60;;;;;;;;;;6220326;23;20102;-88
2023/01/08 00:59:00;;;;;;;76.55;38.70;;;;;;;;;;6218861;23;20047;-88
2023/01/08 01:01:27;;;;;;;71.40;37.05;;;;;;;;;;6224242;23;20187;-88
2023/01/08 01:03:55;;;;;;;71.97;38.47;;;;;;;;;;6221398;23;20030;-87
2023/01/08 01:06:22;;;;;;;67.28;37.10;;;;;;;;;;6218304;23;20091;-88
2023/01/08 01:08:49;;;;;;;75.95;39.30;;;;;;;;;;6219615;23;20084;-87
2023/01/08 01:11:20;;;;;;;91.72;43.55;;;;;;;;;;6218961;23;20027;-89
2023/01/08 01:13:48;;;;;;;84.53;41.67;;;;;;;;;;6218591;23;20031;-88
2023/01/08 01:16:15;;;;;;;91.10;42.63;;;;;;;;;;6208383;23;20019;-88
2023/01/08 01:18:41;;;;;;;99.63;46.58;;;;;;;;;;6165789;23;20005;-88
2023/01/08 01:21:34;;;;;;;102.00;44.90;;;;;;;;;;6158731;23;20031;-88
2023/01/08 01:24:12;;;;;;;99.28;44.80;;;;;;;;;;6159848;23;20004;-91
2023/01/08 01:26:39;;;;;;;74.07;37.90;;;;;;;;;;6159593;23;20099;-88
2023/01/08 01:29:06;;;;;;;73.47;38.63;;;;;;;;;;6160065;23;20001;-90
2023/01/08 01:31:33;;;;;;;82.75;39.50;;;;;;;;;;6186540;23;20032;-89
2023/01/08 01:34:01;;;;;;;72.40;38.70;;;;;;;;;;6161886;23;20002;-87
2023/01/08 01:36:34;;;;;;;92.05;43.83;;;;;;;;;;6163929;23;20024;-88
2023/01/08 01:39:01;;;;;;;80.85;41.25;;;;;;;;;;6205036;23;20020;-88
2023/01/08 01:41:28;;;;;;;100.28;45.20;;;;;;;;;;6224526;23;20003;-89
2023/01/08 01:43:59;;;;;;;64.57;36.72;;;;;;;;;;6223507;23;20214;-87
2023/01/08 01:46:26;;;;;;;73.90;38.95;;;;;;;;;;6220101;23;20337;-89
2023/01/08 01:48:56;;;;;;;87.13;41.45;;;;;;;;;;6220838;23;20001;-90
2023/01/08 01:51:27;;;;;;;75.55;38.92;;;;;;;;;;6224318;23;20338;-88
2023/01/08 01:54:13;;;;;;;75.70;38.78;;;;;;;;;;6196164;23;20426;-92
2023/01/08 01:56:41;;;;;;;63.33;35.67;;;;;;;;;;6221217;23;20008;-89
2023/01/08 01:59:08;;;;;;;67.18;34.97;;;;;;;;;;6229864;23;20028;-89
2023/01/08 02:01:37;;;;;;;55.90;33.88;;;;;;;;;;6253034;23;20004;-89
2023/01/08 02:04:05;;;;;;;64.78;33.95;;;;;;;;;;6222005;23;20318;-89
2023/01/08 02:06:37;;;;;;;66.03;35.95;;;;;;;;;;6221843;23;20012;-89
2023/01/08 02:09:23;;;;;;;82.32;41.78;;;;;;;;;;6219560;23;20000;-89
2023/01/08 02:15:00;;;;;;;74.22;38.35;;;;;;;;;;6264400;23;20038;-89
2023/01/08 02:17:48;;;;;;;79.13;39.38;;;;;;;;;;6229472;23;20035;-88
2023/01/08 02:20:20;;;;;;;72.18;37.00;;;;;;;;;;6221416;23;20311;-89
2023/01/08 02:23:05;;;;;;;63.60;35.70;;;;;;;;;;6219272;23;20003;-88
2023/01/08 02:25:36;;;;;;;66.38;36.35;;;;;;;;;;6219406;23;20437;-89
2023/01/08 02:28:10;;;;;;;57.75;33.70;;;;;;;;;;6218829;23;20050;-94
2023/01/08 02:30:36;;;;;;;64.28;35.60;;;;;;;;;;6221332;23;20000;-88
2023/01/08 02:33:02;;;;;;;65.13;36.55;;;;;;;;;;6220157;23;20008;-89
2023/01/08 02:35:40;;;;;;;64.13;35.67;;;;;;;;;;6220433;23;20004;-89
2023/01/08 02:38:12;;;;;;;74.88;38.60;;;;;;;;;;6219271;23;20014;-88
2023/01/08 02:40:49;;;;;;;57.63;33.30;;;;;;;;;;6181152;23;20021;-89
2023/01/08 02:43:26;;;;;;;63.42;36.10;;;;;;;;;;6189337;23;20016;-88
2023/01/08 02:45:56;;;;;;;79.55;38.15;;;;;;;;;;6190868;23;20064;-89
2023/01/08 02:48:46;;;;;;;77.45;39.72;;;;;;;;;;6190168;23;20079;-96
2023/01/08 02:51:16;;;;;;;66.82;35.55;;;;;;;;;;6192823;23;20512;-89
2023/01/08 02:53:45;;;;;;;65.35;35.05;;;;;;;;;;6191761;23;20036;-89
2023/01/08 02:56:14;;;;;;;77.40;40.42;;;;;;;;;;6196064;23;20082;-89
2023/01/08 02:58:54;;;;;;;71.57;37.63;;;;;;;;;;6194102;23;20426;-89
2023/01/08 03:01:24;;;;;;;75.60;37.95;;;;;;;;;;6189704;23;20024;-88
2023/01/08 03:03:53;;;;;;;88.65;42.67;;;;;;;;;;6191463;23;20035;-89
2023/01/08 03:06:25;;;;;;;81.22;39.90;;;;;;;;;;6191474;23;20012;-95
2023/01/08 03:08:53;;;;;;;66.20;35.83;;;;;;;;;;6224615;23;19992;-90
2023/01/08 03:11:21;;;;;;;77.13;38.85;;;;;;;;;;6198456;23;20044;-89
2023/01/08 03:14:02;;;;;;;68.72;35.83;;;;;;;;;;6194463;23;20039;-87
2023/01/08 03:16:35;;;;;;;67.35;35.92;;;;;;;;;;6191713;23;20008;-88
2023/01/08 03:19:14;;;;;;;69.03;35.55;;;;;;;;;;6193124;23;20008;-89
2023/01/08 03:21:44;;;;;;;66.18;34.53;;;;;;;;;;6191974;23;20028;-89
2023/01/08 03:24:13;;;;;;;72.53;36.25;;;;;;;;;;6193497;23;20418;-93
2023/01/08 03:26:41;;;;;;;85.15;40.13;;;;;;;;;;6193509;23;20019;-89
2023/01/08 03:29:11;;;;;;;64.43;34.58;;;;;;;;;;6214842;23;20008;-90
2023/01/08 03:31:39;;;;;;;60.67;31.60;;;;;;;;;;6198584;23;20012;-89
2023/01/08 03:34:06;;;;;;;64.82;34.00;;;;;;;;;;6191823;23;20000;-89
2023/01/08 03:36:36;;;;;;;77.88;37.85;;;;;;;;;;6191560;23;20024;-89
2023/01/08 03:39:34;;;;;;;65.03;34.42;;;;;;;;;;6217894;23;19997;-89
2023/01/08 03:42:05;;;;;;;77.45;37.90;;;;;;;;;;6141797;23;20004;-89
2023/01/08 03:44:32;;;;;;;79.10;38.58;;;;;;;;;;6192755;23;20005;-89
2023/01/08 03:47:13;;;;;;;79.38;37.58;;;;;;;;;;6191515;23;20013;-89
2023/01/08 03:49:40;;;;;;;83.97;37.92;;;;;;;;;;6192259;23;20015;-88
2023/01/08 03:54:53;;;;;;;81.53;39.40;;;;;;;;;;6217301;23;20457;-88
2023/01/08 03:57:20;;;;;;;75.18;38.80;;;;;;;;;;6191886;23;20047;-88
2023/01/08 03:59:59;;;;;;;86.18;39.92;;;;;;;;;;6190938;23;20050;-88
2023/01/08 04:02:26;;;;;;;67.80;34.55;;;;;;;;;;6190468;23;20084;-89
2023/01/08 04:04:53;;;;;;;85.22;38.72;;;;;;;;;;6190245;23;20419;-89
2023/01/08 04:07:20;;;;;;;81.60;37.67;;;;;;;;;;6190243;23;20047;-89
2023/01/08 04:09:47;;;;;;;81.75;38.15;;;;;;;;;;6190395;23;20076;-89
2023/01/08 04:12:13;;;;;;;68.32;34.58;;;;;;;;;;6190776;23;20039;-91
2023/01/08 04:14:40;;;;;;;94.97;40.80;;;;;;;;;;6191440;23;20012;-88
2023/01/08 04:19:57;;;;;;;81.78;36.95;;;;;;;;;;6219419;23;20378;-91
2023/01/08 04:22:24;;;;;;;73.88;35.38;;;;;;;;;;6195110;23;20012;-88
2023/01/08 04:24:51;;;;;;;68.43;33.03;;;;;;;;;;6192733;23;20008;-89
2023/01/08 04:27:17;;;;;;;83.28;36.60;;;;;;;;;;6190398;23;20013;-88
2023/01/08 04:30:03;;;;;;;94.82;39.63;;;;;;;;;;6190763;23;20011;-95
2023/01/08 04:32:30;;;;;;;96.85;40.15;;;;;;;;;;6221143;23;20005;-88
2023/01/08 04:34:56;;;;;;;84.72;38.60;;;;;;;;;;6191944;23;20005;-89
2023/01/08 04:37:23;;;;;;;83.35;38.10;;;;;;;;;;6192513;23;20008;-89
2023/01/08 04:39:53;;;;;;;85.90;37.58;;;;;;;;;;6191618;23;20005;-88
2023/01/08 04:42:21;;;;;;;95.03;39.72;;;;;;;;;;6190994;23;20008;-89
2023/01/08 04:44:48;;;;;;;67.53;33.35;;;;;;;;;;6191291;23;20009;-89
2023/01/08 04:47:15;;;;;;;81.65;36.90;;;;;;;;;;6192255;23;20016;-89
2023/01/08 04:49:42;;;;;;;73.05;34.75;;;;;;;;;;6191090;23;20422;-89
2023/01/08 04:52:12;;;;;;;70.47;35.88;;;;;;;;;;6194723;23;20059;-88
2023/01/08 04:54:39;;;;;;;87.53;40.55;;;;;;;;;;6210616;23;20000;-88
2023/01/08 04:59:49;;;;;;;71.93;35.08;;;;;;;;;;6309988;22;20366;-89
2023/01/08 05:05:05;;;;;;;73.38;34.20;;;;;;;;;;6308400;22;20439;-95
2023/01/08 05:07:37;;;;;;;68.43;33.22;;;;;;;;;;6282359;22;20011;-96
2023/01/08 05:10:04;;;;;;;81.22;35.22;;;;;;;;;;6282462;22;20007;-89
2023/01/08 05:12:31;;;;;;;88.70;36.67;;;;;;;;;;6309171;22;20079;-88
2023/01/08 05:14:58;;;;;;;62.08;31.50;;;;;;;;;;6283334;22;20298;-89
2023/01/08 05:17:25;;;;;;;73.72;34.25;;;;;;;;;;6283512;22;20007;-89
2023/01/08 05:19:54;;;;;;;80.20;35.22;;;;;;;;;;6306164;22;19992;-90
2023/01/08 05:22:22;;;;;;;80.15;35.78;;;;;;;;;;6288391;22;20013;-89
2023/01/08 05:24:49;;;;;;;70.53;34.22;;;;;;;;;;6282053;22;20019;-89
2023/01/08 05:27:18;;;;;;;69.60;34.40;;;;;;;;;;6282212;22;20368;-95
2023/01/08 05:30:14;;;;;;;68.68;33.50;;;;;;;;;;6281173;22;20133;-89
2023/01/08 05:32:41;;;;;;;77.32;34.90;;;;;;;;;;6280415;22;20003;-89
2023/01/08 05:35:08;;;;;;;85.47;35.88;;;;;;;;;;6280919;22;20010;-90
2023/01/08 05:37:35;;;;;;;70.85;34.05;;;;;;;;;;6287787;22;20008;-89
2023/01/08 05:40:02;;;;;;;83.95;37.38;;;;;;;;;;6288255;22;20014;-89
2023/01/08 05:42:29;;;;;;;66.18;32.92;;;;;;;;;;6273410;22;20075;-90
2023/01/08 05:44:57;;;;;;;82.93;37.42;;;;;;;;;;6282745;22;20048;-89
2023/01/08 05:47:24;;;;;;;60.83;31.98;;;;;;;;;;6280791;22;20064;-88
2023/01/08 05:49:53;;;;;;;72.88;34.60;;;;;;;;;;6282307;22;20003;-90
2023/01/08 05:52:20;;;;;;;81.65;36.30;;;;;;;;;;6226774;22;20028;-89
2023/01/08 05:54:59;;;;;;;67.53;32.70;;;;;;;;;;6190596;23;20372;-89
2023/01/08 05:57:26;;;;;;;86.90;38.50;;;;;;;;;;6191279;23;20119;-90
2023/01/08 05:59:52;;;;;;;75.97;34.67;;;;;;;;;;6192612;23;20008;-87
2023/01/08 06:02:19;;;;;;;69.35;33.13;;;;;;;;;;6188517;23;20004;-87
2023/01/08 06:04:46;;;;;;;69.50;34.15;;;;;;;;;;6187868;23;20039;-89
2023/01/08 06:07:12;;;;;;;85.07;37.83;;;;;;;;;;6190223;23;20016;-89
2023/01/08 06:09:39;;;;;;;68.20;34.50;;;;;;;;;;6189974;23;20419;-89
2023/01/08 06:12:18;;;;;;;91.95;38.65;;;;;;;;;;6189637;23;20031;-88
2023/01/08 06:14:46;;;;;;;70.53;34.67;;;;;;;;;;6211019;23;20047;-88
2023/01/08 06:17:12;;;;;;;72.88;35.55;;;;;;;;;;6188592;23;20009;-87
2023/01/08 06:19:39;;;;;;;69.53;33.28;;;;;;;;;;6192561;23;20012;-87
2023/01/08 06:22:05;;;;;;;88.05;38.10;;;;;;;;;;6194310;23;20001;-88
2023/01/08 06:24:32;;;;;;;83.45;38.13;;;;;;;;;;6192761;23;20015;-89
2023/01/08 06:26:58;;;;;;;81.30;38.35;;;;;;;;;;6190189;23;20024;-88
2023/01/08 06:29:25;;;;;;;89.93;39.97;;;;;;;;;;6190912;23;20000;-87
2023/01/08 06:31:51;;;;;;;77.97;36.22;;;;;;;;;;6190322;23;20004;-87
2023/01/08 06:34:50;;;;;;;76.80;37.03;;;;;;;;;;6191003;23;20429;-94
2023/01/08 06:37:16;;;;;;;73.32;36.33;;;;;;;;;;6190919;23;20019;-88
2023/01/08 06:39:43;;;;;;;97.82;42.20;;;;;;;;;;6190048;23;20008;-89
2023/01/08 06:42:10;;;;;;;72.75;37.20;;;;;;;;;;6179316;23;20065;-89
2023/01/08 06:44:36;;;;;;;84.90;38.97;;;;;;;;;;6167407;23;20002;-88
2023/01/08 06:47:16;;;;;;;86.63;40.88;;;;;;;;;;6166243;23;20035;-88
2023/01/08 06:49:43;;;;;;;73.70;36.72;;;;;;;;;;6167586;23;20009;-89
2023/01/08 06:52:23;;;;;;;77.38;38.63;;;;;;;;;;6161666;23;20009;-95
2023/01/08 06:54:53;;;;;;;80.28;37.05;;;;;;;;;;6161592;23;20012;-87
2023/01/08 06:57:19;;;;;;;85.20;39.03;;;;;;;;;;6165566;23;20009;-89
2023/01/08 06:59:46;;;;;;;71.53;36.00;;;;;;;;;;6164467;23;20067;-89
2023/01/08 07:02:16;;;;;;;80.88;37.78;;;;;;;;;;6164050;23;20035;-87
2023/01/08 07:04:45;;;;;;;75.65;37.22;;;;;;;;;;6164971;23;20059;-86
2023/01/08 07:07:14;;;;;;;70.82;34.80;;;;;;;;;;6164149;23;20012;-88
2023/01/08 07:09:47;;;;;;;76.70;36.70;;;;;;;;;;6173557;23;20013;-88
2023/01/08 07:12:13;;;;;;;84.10;38.10;;;;;;;;;;6176366;23;20016;-88
2023/01/08 07:14:40;;;;;;;71.25;35.13;;;;;;;;;;6141323;23;20326;-88
2023/01/08 07:19:54;;;;;;;88.35;39.38;;;;;;;;;;6190096;23;20075;-88
2023/01/08 07:22:40;;;;;;;73.03;36.65;;;;;;;;;;6167327;23;20308;-90
2023/01/08 07:25:08;;;;;;;74.22;37.13;;;;;;;;;;6126754;23;20609;-88
2023/01/08 07:27:50;;;;;;;82.03;39.00;;;;;;;;;;6165560;23;20013;-89
2023/01/08 07:30:17;;;;;;;69.78;32.92;;;;;;;;;;6192503;23;20033;-90
2023/01/08 07:32:43;;;;;;;77.20;37.83;;;;;;;;;;6170806;23;20059;-88
2023/01/08 07:35:16;;;;;;;66.32;33.80;;;;;;;;;;6180682;23;20029;-88
2023/01/08 07:37:46;;;;;;;72.22;36.10;;;;;;;;;;6200174;23;19999;-91
2023/01/08 07:40:23;;;;;;;70.63;36.65;;;;;;;;;;6169537;23;20087;-93
2023/01/08 07:43:02;;;;;;;67.03;35.70;;;;;;;;;;6187257;23;20017;-88
2023/01/08 07:45:29;;;;;;;84.93;43.80;;;;;;;;;;6195698;23;20632;-88
2023/01/08 07:47:59;;;;;;;66.63;34.95;;;;;;;;;;6191808;23;20048;-88
2023/01/08 07:50:30;;;;;;;92.90;44.60;;;;;;;;;;6194618;23;20001;-89
2023/01/08 07:52:58;;;;;;;98.10;48.00;;;;;;;;;;6218293;23;20012;-89
2023/01/08 07:55:43;;;;;;;69.05;36.30;;;;;;;;;;6193636;23;20005;-89
2023/01/08 07:58:27;;;;;;;71.18;35.28;;;;;;;;;;6192132;23;20014;-88
2023/01/08 08:00:59;;;;;;;68.82;36.17;;;;;;;;;;6195394;23;20101;-93
2023/01/08 08:03:25;;;;;;;69.82;35.85;;;;;;;;;;6219047;23;20009;-91
2023/01/08 08:05:51;;;;;;;64.53;35.45;;;;;;;;;;6194859;23;20043;-91
2023/01/08 08:08:18;;;;;;;63.72;34.70;;;;;;;;;;6191689;23;20001;-89
2023/01/08 08:11:01;;;;;;;65.75;37.22;;;;;;;;;;6195675;23;20005;-91
2023/01/08 08:14:16;;;;;;;67.40;36.60;;;;;;;;;;6199548;23;20031;-92
2023/01/08 08:17:12;;;;;;;65.88;35.88;;;;;;;;;;6077581;23;20002;-92
2023/01/08 08:19:42;;;;;;;74.57;38.70;;;;;;;;;;6100303;23;20428;-89
2023/01/08 08:22:12;;;;;;;80.32;39.28;;;;;;;;;;6213387;23;20449;-95
2023/01/08 08:24:42;;;;;;;73.47;37.05;;;;;;;;;;6197104;23;20311;-87
2023/01/08 08:27:11;;;;;;;77.30;39.38;;;;;;;;;;6194568;23;20023;-94
2023/01/08 08:29:39;;;;;;;73.78;38.28;;;;;;;;;;6192174;23;20004;-88
2023/01/08 08:32:05;;;;;;;73.05;36.25;;;;;;;;;;6193827;23;20009;-87
2023/01/08 08:34:33;;;;;;;72.15;37.20;;;;;;;;;;6195290;23;20011;-87
2023/01/08 08:36:59;;;;;;;65.07;35.08;;;;;;;;;;6216875;23;20008;-86
2023/01/08 08:39:26;;;;;;;74.13;37.22;;;;;;;;;;6192089;23;20012;-87
2023/01/08 08:41:53;;;;;;;63.60;35.50;;;;;;;;;;6191245;23;20040;-89
2023/01/08 08:44:25;;;;;;;72.15;37.70;;;;;;;;;;6224303;23;19997;-88
2023/01/08 08:46:52;;;;;;;64.88;35.55;;;;;;;;;;6193509;23;20063;-87
2023/01/08 08:49:19;;;;;;;70.22;38.05;;;;;;;;;;6190907;23;20000;-88
2023/01/08 08:51:46;;;;;;;61.20;34.78;;;;;;;;;;6191422;23;20008;-89
2023/01/08 08:54:13;;;;;;;62.53;33.55;;;;;;;;;;6190898;23;20333;-88
2023/01/08 08:56:43;;;;;;;62.40;33.75;;;;;;;;;;6216912;23;20063;-88
2023/01/08 08:59:12;;;;;;;57.78;33.95;;;;;;;;;;6188782;23;20011;-88
2023/01/08 09:01:38;;;;;;;58.00;30.70;;;;;;;;;;6224104;22;19988;-88
2023/01/08 09:04:05;;;;;;;52.40;29.50;;;;;;;;;;6207609;23;20139;-89
2023/01/08 09:06:32;;;;;;;57.80;33.08;;;;;;;;;;6190036;23;20092;-89
2023/01/08 09:08:59;;;;;;;61.67;34.60;;;;;;;;;;6215239;23;20012;-88
2023/01/08 09:11:26;;;;;;;52.65;30.15;;;;;;;;;;6188871;23;20011;-89
2023/01/08 09:13:53;;;;;;;57.83;32.33;;;;;;;;;;6184275;23;20028;-87
2023/01/08 09:16:20;;;;;;;60.38;32.10;;;;;;;;;;6190555;23;20008;-87
2023/01/08 09:18:48;;;;;;;58.28;32.65;;;;;;;;;;6188338;23;20299;-88
2023/01/08 09:21:15;;;;;;;68.95;34.50;;;;;;;;;;6192765;23;20052;-88
2023/01/08 09:23:42;;;;;;;56.67;31.13;;;;;;;;;;6199714;23;20056;-88
2023/01/08 09:26:13;;;;;;;54.65;30.92;;;;;;;;;;6189715;23;20012;-87
2023/01/08 09:28:40;;;;;;;57.83;32.17;;;;;;;;;;6187201;23;20008;-88
2023/01/08 09:31:07;;;;;;;55.58;30.77;;;;;;;;;;6188736;23;20032;-88
2023/01/08 09:33:34;;;;;;;60.97;32.30;;;;;;;;;;6188747;23;20005;-88
2023/01/08 09:36:00;;;;;;;56.22;31.05;;;;;;;;;;6187605;23;20005;-88
2023/01/08 09:38:26;;;;;;;51.03;28.92;;;;;;;;;;6188126;23;20009;-88
2023/01/08 09:41:01;;;;;;;57.88;30.45;;;;;;;;;;6187231;23;20335;-88
2023/01/08 09:43:30;;;;;;;55.90;31.08;;;;;;;;;;6213864;23;20013;-88
2023/01/08 09:45:59;;;;;;;55.17;31.42;;;;;;;;;;6188218;23;20008;-89
2023/01/08 09:48:29;;;;;;;53.60;30.83;;;;;;;;;;6189077;23;20028;-89
2023/01/08 09:50:56;;;;;;;57.20;31.42;;;;;;;;;;6188383;23;20021;-88
2023/01/08 09:53:24;;;;;;;64.15;33.45;;;;;;;;;;6188934;23;20000;-88
2023/01/08 09:56:14;;;;;;;53.90;31.00;;;;;;;;;;6190241;23;20020;-89
2023/01/08 09:58:52;;;;;;;57.53;31.60;;;;;;;;;;6174529;23;20001;-88
2023/01/08 10:01:30;;;;;;;57.17;31.20;;;;;;;;;;6190197;23;20024;-88
2023/01/08 10:04:05;;;;;;;58.17;30.65;;;;;;;;;;6190420;23;20023;-88
2023/01/08 10:06:32;;;;;;;53.20;29.90;;;;;;;;;;6190311;23;20024;-89
2023/01/08 10:08:58;;;;;;;56.92;33.17;;;;;;;;;;6216547;23;20011;-88
2023/01/08 10:11:32;;;;;;;56.70;32.42;;;;;;;;;;6190603;23;20095;-88
2023/01/08 10:14:00;;;;;;;66.65;35.50;;;;;;;;;;6194368;23;20016;-88
2023/01/08 10:16:34;;;;;;;67.80;36.58;;;;;;;;;;6199196;23;20005;-88
2023/01/08 10:19:01;;;;;;;;;;;;;;;;;;6197138;23;20005;-86
2023/01/08 10:21:39;;;;;;;65.93;34.28;;;;;;;;;;6226766;23;19922;-86
2023/01/08 10:24:07;;;;;;;67.82;37.33;;;;;;;;;;6193610;23;20005;-87
2023/01/08 10:26:35;;;;;;;65.40;35.92;;;;;;;;;;6193607;23;20069;-88
2023/01/08 10:29:08;;;;;;;51.22;30.60;;;;;;;;;;6193402;23;20040;-86
2023/01/08 10:31:45;;;;;;;52.17;29.30;;;;;;;;;;6218150;23;20008;-89
2023/01/08 10:34:20;;;;;;;56.45;31.42;;;;;;;;;;6218350;23;20497;-88
2023/01/08 10:36:54;;;;;;;56.63;31.50;;;;;;;;;;6192295;23;20005;-91
2023/01/08 10:39:22;;;;;;;54.65;31.70;;;;;;;;;;6219251;23;20039;-86
2023/01/08 10:42:06;;;;;;;62.30;33.53;;;;;;;;;;6188843;23;20021;-88
2023/01/08 10:44:36;;;;;;;62.42;35.50;;;;;;;;;;6166096;23;20001;-89
2023/01/08 10:47:04;;;;;;;57.20;31.92;;;;;;;;;;6164136;23;20025;-87
2023/01/08 10:49:34;;;;;;;60.70;33.88;;;;;;;;;;6164707;23;20008;-88
2023/01/08 10:52:00;;;;;;;64.57;35.22;;;;;;;;;;6163970;23;20334;-93
2023/01/08 10:54:33;;;;;;;57.80;33.42;;;;;;;;;;6176933;23;20016;-90
2023/01/08 10:57:18;;;;;;;54.40;31.42;;;;;;;;;;6242890;22;20023;-90
2023/01/08 10:59:49;;;;;;;50.28;30.13;;;;;;;;;;6241292;22;20417;-90
2023/01/08 11:02:29;;;;;;;56.67;31.92;;;;;;;;;;6223492;23;20053;-88
2023/01/08 11:05:06;;;;;;;53.92;31.80;;;;;;;;;;6222676;23;20004;-88
2023/01/08 11:08:13;;;;;;;52.65;30.98;;;;;;;;;;6252235;23;20016;-89
2023/01/08 11:10:40;;;;;;;50.75;29.70;;;;;;;;;;6194349;23;20008;-89
2023/01/08 11:13:15;;;;;;;49.53;29.05;;;;;;;;;;6223484;23;20101;-89
2023/01/08 11:15:51;;;;;;;52.30;31.20;;;;;;;;;;6227065;23;20004;-89
2023/01/08 11:18:21;;;;;;;50.05;29.38;;;;;;;;;;6226778;23;20453;-88
2023/01/08 11:20:49;;;;;;;53.25;30.50;;;;;;;;;;6226405;23;20001;-88
2023/01/08 11:23:18;;;;;;;49.75;29.83;;;;;;;;;;6226659;23;20015;-88
2023/01/08 11:26:06;;;;;;;51.80;30.95;;;;;;;;;;6227552;22;20008;-88
2023/01/08 11:28:59;;;;;;;51.72;30.10;;;;;;;;;;6240623;23;20062;-88
2023/01/08 11:31:51;;;;;;;52.72;31.05;;;;;;;;;;6226607;23;20054;-87
2023/01/08 11:34:37;;;;;;;49.50;29.55;;;;;;;;;;6247182;23;20015;-96
2023/01/08 11:37:35;;;;;;;54.92;31.33;;;;;;;;;;6224063;22;19999;-87
2023/01/08 11:40:13;;;;;;;56.05;32.55;;;;;;;;;;6225771;23;20315;-96
2023/01/08 11:46:01;;;;;;;56.13;32.43;;;;;;;;;;6258243;22;20031;-87
2023/01/08 11:48:47;;;;;;;57.22;31.42;;;;;;;;;;6229557;23;20239;-88
2023/01/08 11:51:33;;;;;;;54.72;32.13;;;;;;;;;;6252824;23;20008;-92
2023/01/08 11:54:06;;;;;;;59.20;32.17;;;;;;;;;;6223009;23;20378;-88
2023/01/08 11:56:56;;;;;;;59.35;33.13;;;;;;;;;;6250685;23;20437;-88
2023/01/08 12:02:37;;;;;;;57.55;31.15;;;;;;;;;;6168010;23;20024;-88
2023/01/08 12:05:16;;;;;;;54.95;31.17;;;;;;;;;;6222157;23;20048;-89
2023/01/08 12:07:58;;;;;;;58.70;32.88;;;;;;;;;;6222680;23;20043;-88
2023/01/08 12:10:25;;;;;;;59.10;32.10;;;;;;;;;;6225808;22;20018;-86
2023/01/08 12:13:31;;;;;;;64.80;34.20;;;;;;;;;;6226332;23;20004;-86
2023/01/08 12:16:12;;;;;;;55.55;30.55;;;;;;;;;;6220516;23;20031;-86
2023/01/08 12:19:00;;;;;;;61.60;31.95;;;;;;;;;;6244943;23;20365;-88
2023/01/08 12:21:45;;;;;;;67.07;34.13;;;;;;;;;;6221736;23;20015;-86
2023/01/08 12:30:36;;;;;;;61.30;33.30;;;;;;;;;;6147615;23;20029;-88
2023/01/08 12:36:35;;;;;;;60.92;31.73;;;;;;;;;;6235889;22;20088;-88
2023/01/08 12:39:09;;;;;;;67.40;35.97;;;;;;;;;;6166809;23;20008;-95
2023/01/08 12:45:14;;;;;;;62.97;34.40;;;;;;;;;;6170688;23;20020;-94
2023/01/08 12:47:53;;;;;;;69.45;35.95;;;;;;;;;;6141192;23;20014;-92
2023/01/08 12:50:36;;;;;;;59.10;32.72;;;;;;;;;;6165889;22;20028;-92
2023/01/08 12:53:22;;;;;;;64.13;35.50;;;;;;;;;;6233365;23;20038;-86
2023/01/08 12:56:17;;;;;;;59.40;34.40;;;;;;;;;;6205045;23;20008;-93
2023/01/08 12:59:24;;;;;;;68.60;35.85;;;;;;;;;;6206422;23;20398;-95
2023/01/08 13:04:48;;;;;;;72.68;38.30;;;;;;;;;;6316732;22;20070;-91
2023/01/08 13:07:23;;;;;;;70.95;37.35;;;;;;;;;;6314188;22;20008;-88
2023/01/08 13:09:58;;;;;;;69.85;38.00;;;;;;;;;;6286219;22;19999;-96
2023/01/08 13:12:32;;;;;;;64.28;36.88;;;;;;;;;;6278449;22;20034;-88
2023/01/08 13:15:35;;;;;;;56.63;32.97;;;;;;;;;;6286126;22;19999;-90
2023/01/08 13:18:07;;;;;;;62.20;33.97;;;;;;;;;;6158923;23;20103;-92
2023/01/08 13:20:55;;;;;;;64.32;36.55;;;;;;;;;;6178325;22;20225;-90
2023/01/08 13:23:50;;;;;;;69.82;36.50;;;;;;;;;;6291312;22;20052;-91
2023/01/08 13:26:50;;;;;;;63.97;36.30;;;;;;;;;;6137460;23;20069;-92
2023/01/08 13:58:09;;;;;;;56.10;32.50;;;;;;;;;;6131069;23;20006;-93
2023/01/08 14:12:52;;;;;;;50.95;31.55;;;;;;;;;;6161413;23;20009;-94
2023/01/08 14:21:16;;;;;;;45.78;29.25;;;;;;;;;;6102370;23;20482;-90
2023/01/08 14:29:53;;;;;;;56.00;33.35;;;;;;;;;;6255073;22;20019;-93
2023/01/08 14:35:51;;;;;;;51.83;33.40;;;;;;;;;;6257920;23;20020;-95
2023/01/08 15:20:58;;;;;;;50.17;31.02;;;;;;;;;;6280748;22;20058;-94
2023/01/08 15:36:35;;;;;;;52.35;32.03;;;;;;;;;;6135268;23;20031;-94
2023/01/08 15:45:18;;;;;;;50.15;30.42;;;;;;;;;;6142981;23;20017;-96
2023/01/08 16:00:01;;;;;;;50.10;31.05;;;;;;;;;;6256928;22;20023;-93
2023/01/08 16:20:47;;;;;;;41.13;29.08;;;;;;;;;;6235634;23;20051;-92
2023/01/08 16:28:51;;;;;;;43.85;28.02;;;;;;;;;;6253868;22;20492;-93
2023/01/08 16:31:38;;;;;;;47.08;29.17;;;;;;;;;;6235823;23;20012;-91
2023/01/08 16:34:18;;;;;;;48.30;28.30;;;;;;;;;;6257093;23;20011;-89
2023/01/08 16:36:44;;;;;;;45.85;27.35;;;;;;;;;;6227918;23;20012;-92
2023/01/08 16:42:01;;;;;;;43.85;25.80;;;;;;;;;;6254838;22;20134;-84
2023/01/08 16:44:51;;;;;;;56.55;31.77;;;;;;;;;;6240255;23;20008;-89
2023/01/08 16:54:06;;;;;;;47.80;27.33;;;;;;;;;;6253526;22;20019;-87
2023/01/08 16:56:36;;;;;;;55.38;29.17;;;;;;;;;;6219763;22;20016;-85
2023/01/08 17:02:18;;;;;;;44.28;25.35;;;;;;;;;;6208992;23;20032;-86
2023/01/08 17:04:55;;;;;;;40.90;23.70;;;;;;;;;;6177734;23;20040;-89
2023/01/08 17:08:07;;;;;;;44.40;25.08;;;;;;;;;;6223942;22;20020;-93
2023/01/08 17:10:38;;;;;;;51.60;28.27;;;;;;;;;;6170406;23;20057;-93
2023/01/08 17:13:24;;;;;;;45.45;26.30;;;;;;;;;;6145735;23;20010;-88
2023/01/08 17:18:25;;;;;;;42.35;24.00;;;;;;;;;;6261249;22;20019;-93
2023/01/08 17:29:47;;;;;;;47.80;26.20;;;;;;;;;;6295060;22;20024;-86
2023/01/08 17:38:21;;;;;;;54.67;29.42;;;;;;;;;;6289303;22;20245;-94
2023/01/08 17:40:52;;;;;;;50.08;28.48;;;;;;;;;;6291391;22;20071;-85
2023/01/08 17:46:25;;;;;;;48.67;27.15;;;;;;;;;;6287102;22;20077;-92
2023/01/08 17:48:52;;;;;;;57.50;29.58;;;;;;;;;;6221623;23;20580;-88
2023/01/08 17:51:19;;;;;;;54.83;29.63;;;;;;;;;;6197180;23;20005;-85
2023/01/08 17:53:52;;;;;;;52.03;28.33;;;;;;;;;;6201219;23;20005;-87
2023/01/08 17:56:40;;;;;;;47.55;26.60;;;;;;;;;;6227904;23;20005;-95
2023/01/08 18:02:18;;;;;;;75.90;41.00;;;;;;;;;;6239613;23;20048;-87
2023/01/08 18:05:20;;;;;;;54.85;31.30;;;;;;;;;;6216387;23;20001;-95
2023/01/08 18:11:39;;;;;;;82.22;40.28;;;;;;;;;;6264909;22;20203;-86
2023/01/08 18:20:48;;;;;;;51.97;27.15;;;;;;;;;;6223527;23;20019;-88
2023/01/08 18:24:08;;;;;;;53.10;27.45;;;;;;;;;;6200238;23;20418;-91
2023/01/08 18:26:51;;;;;;;45.08;25.15;;;;;;;;;;6160330;23;20021;-90
2023/01/08 18:29:36;;;;;;;53.50;27.58;;;;;;;;;;6137797;23;20026;-95
2023/01/08 18:32:24;;;;;;;43.95;25.38;;;;;;;;;;6139665;23;19989;-94
2023/01/08 18:34:51;;;;;;;43.55;24.67;;;;;;;;;;6152671;23;20016;-87
2023/01/08 18:37:21;;;;;;;50.53;27.33;;;;;;;;;;6167667;23;20025;-86
2023/01/08 18:43:11;;;;;;;46.15;24.73;;;;;;;;;;6260133;23;20011;-90
2023/01/08 18:51:28;;;;;;;49.72;26.73;;;;;;;;;;6224003;22;20016;-86
2023/01/08 18:54:14;;;;;;;51.60;27.77;;;;;;;;;;6220369;23;20011;-87
2023/01/08 18:59:49;;;;;;;53.97;27.23;;;;;;;;;;6247990;23;20138;-88
2023/01/08 19:05:11;;;;;;;57.50;26.92;;;;;;;;;;6233327;22;20027;-87